Bob Sikes Airport
KCEW : now visible

Airfield :











YOU CAN JOIN US ON...

 
LOGIN :

Register | Disclaimer

   EN    FR    IT 

 









Legend :    VFR   Marginal VFR   IFR   Intensive IFR   Very Intensive IFR
Visi :
Ceiling :
>= 8 km
>= 3000ft
5 to 8 km
1000 to 3000 ft
1500m to 5 km
500 to 1000 ft
800 to 1500m
200 to 500 ft
< 800m
< 200 ft
Symbols :   Thunderstorms  Fog  Heavy snow  Heavy precipitations  Wind > 20 kt






- Airport Elevation : 213 ft


KCEW - Bob Sikes

CURRENT METAR :
  • 011453Z AUTO 00000KT 7SM OVC004 17/17 A3025 RMK AO2 CIG 002V007 SLP240 T01720172 53016

EXPIRED METARs :
  • 011421Z AUTO 35004KT 3SM BR OVC003 17/17 A3023 RMK AO2 CIG 002V007 T01720172
  • 011406Z AUTO 34004KT 1 3/4SM BR OVC002 17/17 A3023 RMK AO2 T01720172
  • 011353Z AUTO 35003KT 4SM BR OVC002 17/17 A3022 RMK AO2 SLP231 T01720172
  • 011341Z AUTO 34005KT 3/4SM BR OVC002 17/17 A3022 RMK AO2 T01720172
  • 011313Z AUTO 00000KT 3/4SM BR OVC001 17/17 A3020 RMK AO2 VIS 1/2V2 T01720172
  • 011308Z AUTO 35003KT 1 3/4SM BR OVC002 17/17 A3020 RMK AO2 VIS 1V3 T01720172
  • 011304Z AUTO 36003KT 3SM BR OVC002 17/17 A3020 RMK AO2 T01720172
  • 011244Z AUTO 00000KT 3/4SM BR VV002 17/17 A3020 RMK AO2 T01720172
  • 011229Z AUTO 00000KT 3/4SM BR VV001 17/17 A3019 RMK AO2 T01720172

TAF N/A
KZJX FIR / North America



MET'MAP, your aeronautical weather chart ! - Copyright ORBIFLY December 2007 - Disclaimer

ORBIFLY MET'MAP TEAM :

Programming & Development : Alexandra Zaïnal
Original concept : Baudouin d'Aumeries
Technical & hardware support : Manuel Goepfert
Assistance : Marc-Olivier Méhu




SOURCES & CREDITS :

   NOAA       Earth
Advisory